Share

Sheffield, TX

Fort Stockton-Pecos County (KFST) Elev 3009 ft | 30.91 °N, 102.92 °W | Change Station

Current weather conditions updated 23 minutes ago

Clear
Clear
74 °F
Feels Like 74 °F
N
15
Wind Variable Wind from SSE
Gusts 24 mph
Sunrise 7:16 AM
Sunset 8:17 PM
Moon Waning Gibbous

Today is forecast to be Warmer than yesterday.

Pressure 30.03 in
Visibility 10.0 miles
Clouds Clear
Dew Point 49 °F
Humidity 41%
Rainfall 0.00 in
Snow Depth Not available.
UV 11 out of 16
Pollen 7.90 out of 12
Air Quality Not available.
Flu Activity Local Activity
METAR KFST 181953Z AUTO 16013G21KT 10SM CLR 23/09 A3013 RMK AO2 SLP167 T02330094 TSNO

More Conditions Fewer Conditions

Pressure 30.03 in
Visibility 10.0 miles
Clouds Clear
Dew Point 49 °F
Humidity 41%
Rainfall 0.00 in
Snow Depth Not available.
UV 11 out of 16
Pollen 7.90 out of 12
Air Quality Not available.
Flu Activity Local Activity
METAR KFST 181953Z AUTO 16013G21KT 10SM CLR 23/09 A3013 RMK AO2 SLP167 T02330094 TSNO

More Conditions Fewer Conditions

10-Day Weather Forecast

Almanac

Astronomy

Apr. 18, 2014 Rise Set
Actual Time 7:16 AM CDT 8:17 PM CDT
Civil Twilight 6:51 AM CDT 8:42 PM CDT
Nautical Twilight 6:22 AM CDT 9:11 PM CDT
Astronomical Twilight 5:52 AM CDT 9:42 PM CDT
Moon 11:55 PM CDT 9:49 AM CDT
Length of Visible Light 13h 50m
Length of Day
13h 00m
Tomorrow will be 1m 44s longer.
Waning Gibbous, 86% of the Moon is Illuminated
Today
Waning Gibbous
Apr 22
Last Quarter
Apr 29
New
May 6
First Quarter
May 14
Full

Today's Extremes

State Highs State Lows

Community

  • What's for Lunch?
    What's for Lunch?
  • SUNRISE THROUGH THE TREES.
    SUNRISE THROUGH THE TREES.
  • Dog Wood Blossoms
    Dog Wood Blossoms
  • Morning Light
    Morning Light
  • New Day
    New Day

WunderPhotos

Upload Photos

1,702,488 photos uploaded!

WunderBlogs® & News

Nearby

Snow Depth

Station Depth Elevation
No new snow has been reported.

Coastal Water Temperatures

Place Temperature
No Stations Reporting

Earthquake Activity

City Distance Mag. Time & Date
No recent earthquake activity has been reported nearby.
Minimum magnitude displayed is 2.5.

Nearby Weather Stations

There are no personal weather stations in this area.

What do you think?

We're not finished. Please let us know what you like, what you don't like, and what you are still missing.